Time;durP1;ratioP1;P1;durP2;ratioP2;P2;SDS_P1;SDS_P2;PMS_P1;PMS_P2;Temp;Humidity;BMP_temperature;BMP_pressure;BME280_temperature;BME280_humidity;BME280_pressure;Samples;Min_cycle;Max_cycle;Signal;HPM_P1;HPM_P2
2023/02/15 07:22:56;;;;;;;7.70;4.00;;;;;;;0.55;77.31;100909.65;112415;1249;22306;-48
2023/02/15 07:26:57;;;;;;;6.80;4.50;;;;;;;0.56;76.92;100909.88;112444;1249;22259;-50
2023/02/15 07:37:28;;;;;;;4.90;1.90;;;;;;;0.62;76.34;100911.58;112547;1249;23275;-51
2023/02/15 07:40:08;;;;;;;4.00;2.00;;;;;;;0.62;76.48;100907.77;112548;1249;23058;-49
2023/02/15 07:42:35;;;;;;;3.30;2.30;;;;;;;0.64;76.42;100914.55;112400;1249;24000;-40
2023/02/15 07:45:02;;;;;;;4.00;2.30;;;;;;;0.67;76.77;100913.00;112551;1249;22200;-48
2023/02/15 07:47:29;;;;;;;3.60;2.00;;;;;;;0.70;75.86;100912.83;112664;1249;22400;-39
2023/02/15 07:49:55;;;;;;;3.70;1.70;;;;;;;0.72;75.86;100912.08;112746;1249;22252;-41
2023/02/15 07:52:22;;;;;;;4.20;1.90;;;;;;;0.75;75.67;100912.92;112779;1249;22545;-40
2023/02/15 07:54:49;;;;;;;8.30;2.60;;;;;;;0.79;75.38;100913.44;112698;1249;22414;-41
2023/02/15 07:57:16;;;;;;;3.40;2.10;;;;;;;0.81;74.94;100915.27;112679;1249;23051;-49
2023/02/15 07:59:43;;;;;;;7.40;3.50;;;;;;;0.83;74.93;100919.30;112719;1249;22192;-49
2023/02/15 08:02:15;;;;;;;7.20;4.50;;;;;;;0.84;74.78;100923.96;112501;1249;22471;-40
2023/02/15 08:05:21;;;;;;;6.30;3.10;;;;;;;0.84;74.79;100922.93;112090;1249;22201;-38
2023/02/15 08:07:54;;;;;;;6.00;3.20;;;;;;;0.83;74.89;100919.97;112283;1249;23007;-49
2023/02/15 08:13:16;;;;;;;5.70;2.40;;;;;;;0.84;74.70;100930.51;112608;1249;22426;-48
2023/02/15 08:15:50;;;;;;;6.30;2.80;;;;;;;0.84;74.40;100926.70;112601;1249;23239;-48
2023/02/15 08:18:27;;;;;;;5.90;2.00;;;;;;;0.83;74.22;100928.06;111803;1249;22638;-40
2023/02/15 08:21:41;;;;;;;5.10;2.30;;;;;;;0.83;74.73;100927.89;112539;1249;22274;-48
2023/02/15 08:38:53;;;;;;;;;;;;;;;0.97;73.93;100927.88;112228;1249;22477;-49
2023/02/15 08:41:45;;;;;;;3.90;2.00;;;;;;;1.02;74.09;100920.07;112500;1249;22516;-50
2023/02/15 08:44:12;;;;;;;3.60;2.30;;;;;;;1.07;73.84;100926.11;112257;1249;22505;-41
2023/02/15 08:46:46;;;;;;;3.50;2.40;;;;;;;1.08;73.44;100925.67;112450;1249;22340;-49
2023/02/15 08:49:46;;;;;;;3.70;1.60;;;;;;;1.09;73.12;100925.84;112314;1249;22913;-48
2023/02/15 08:52:42;;;;;;;13.20;2.60;;;;;;;1.13;73.73;100928.29;111465;1249;27395;-49
2023/02/15 08:55:27;;;;;;;6.70;2.60;;;;;;;1.17;73.43;100930.05;112327;1249;22743;-41
2023/02/15 08:58:09;;;;;;;5.00;2.90;;;;;;;1.18;73.38;100928.36;112294;1249;22505;-48
2023/02/15 09:01:39;;;;;;;8.80;3.40;;;;;;;1.22;73.51;100930.65;112514;1249;22426;-49
2023/02/15 09:05:08;;;;;;;4.50;2.80;;;;;;;1.31;73.75;100927.45;112515;1249;22391;-49
2023/02/15 09:07:59;;;;;;;7.00;3.40;;;;;;;1.39;72.64;100922.14;112354;1249;22505;-50
2023/02/15 09:12:06;;;;;;;7.30;3.00;;;;;;;1.42;72.15;100922.98;112118;1249;24025;-41
2023/02/15 09:15:05;;;;;;;10.70;5.50;;;;;;;1.48;72.22;100921.52;112363;1249;22416;-50
2023/02/15 09:17:34;;;;;;;10.90;6.10;;;;;;;1.54;72.28;100922.52;112092;1249;22519;-40
2023/02/15 09:20:00;;;;;;;9.10;5.70;;;;;;;1.60;71.84;100919.67;111840;1249;22553;-48
2023/02/15 09:22:31;;;;;;;11.60;6.70;;;;;;;1.64;71.46;100921.22;112717;1249;22874;-40
2023/02/15 09:25:00;;;;;;;14.80;6.70;;;;;;;1.66;71.12;100924.77;111347;1249;22334;-49
2023/02/15 09:27:28;;;;;;;17.30;10.10;;;;;;;1.65;71.53;100926.45;112267;1249;22817;-49
2023/02/15 09:29:55;;;;;;;17.00;9.30;;;;;;;1.65;71.62;100925.23;112531;1249;22397;-48
2023/02/15 09:32:23;;;;;;;16.60;9.00;;;;;;;1.59;70.56;100926.86;112534;1249;22631;-40
2023/02/15 09:34:50;;;;;;;17.70;10.00;;;;;;;1.50;70.10;100929.36;112529;1249;22606;-40
2023/02/15 09:37:17;;;;;;;15.10;9.00;;;;;;;1.41;70.26;100922.59;111825;1249;22434;-55
2023/02/15 09:39:46;;;;;;;20.50;9.30;;;;;;;1.36;70.23;100919.27;112698;1249;23558;-50
2023/02/15 09:42:43;;;;;;;12.90;7.90;;;;;;;1.36;70.81;100921.13;112661;1249;22460;-49
2023/02/15 09:45:11;;;;;;;13.90;7.20;;;;;;;1.40;71.28;100915.98;112364;1249;22867;-40
2023/02/15 09:47:45;;;;;;;10.90;6.70;;;;;;;1.40;71.07;100912.77;112538;1249;22482;-50
2023/02/15 09:50:16;;;;;;;12.90;8.00;;;;;;;1.39;70.65;100916.48;112224;1249;22527;-49
2023/02/15 09:52:43;;;;;;;11.50;7.40;;;;;;;1.37;70.81;100913.63;112069;1249;23859;-49
2023/02/15 09:55:34;;;;;;;13.20;8.00;;;;;;;1.34;70.78;100915.21;112640;1249;22425;-49
2023/02/15 09:58:27;;;;;;;15.20;7.70;;;;;;;1.28;70.36;100913.23;112447;1249;22415;-40
2023/02/15 10:01:01;;;;;;;13.40;7.60;;;;;;;1.22;71.07;100915.14;112667;1249;22239;-40
2023/02/15 10:03:45;;;;;;;8.60;5.60;;;;;;;1.19;71.31;100913.80;112442;1249;22915;-41
2023/02/15 10:06:23;;;;;;;13.80;7.90;;;;;;;1.20;71.45;100914.23;112640;1249;22413;-41
2023/02/15 10:09:16;;;;;;;11.80;7.10;;;;;;;1.28;70.90;100912.69;112601;1249;22362;-39
2023/02/15 10:11:50;;;;;;;6.60;4.40;;;;;;;1.35;70.24;100908.41;112666;1249;23204;-39
2023/02/15 10:14:56;;;;;;;10.00;5.10;;;;;;;1.42;69.36;100911.13;112672;1249;23883;-39
2023/02/15 10:17:26;;;;;;;6.50;4.40;;;;;;;1.43;69.02;100906.88;112791;1249;23017;-41
2023/02/15 10:20:13;;;;;;;8.40;4.40;;;;;;;1.48;69.29;100913.96;112766;1249;23282;-50
2023/02/15 10:22:46;;;;;;;8.80;4.80;;;;;;;1.55;68.00;100912.05;112645;1249;22425;-49
2023/02/15 10:25:36;;;;;;;6.40;4.30;;;;;;;1.58;67.57;100907.76;112793;1249;22386;-50
2023/02/15 10:28:10;;;;;;;5.60;3.90;;;;;;;1.65;67.85;100912.34;112626;1249;22408;-48
2023/02/15 10:30:50;;;;;;;10.50;5.70;;;;;;;1.70;67.72;100908.26;112160;1249;22475;-51
2023/02/15 10:33:31;;;;;;;7.60;4.70;;;;;;;1.74;68.09;100909.46;112619;1249;23229;-40
2023/02/15 10:36:11;;;;;;;9.90;4.30;;;;;;;1.76;67.75;100909.40;112376;1249;22783;-40
2023/02/15 10:38:44;;;;;;;8.80;4.70;;;;;;;1.79;67.84;100907.82;112226;1249;22411;-39
2023/02/15 10:41:19;;;;;;;7.80;4.60;;;;;;;1.83;67.18;100909.89;112117;1249;22488;-41
2023/02/15 10:43:46;;;;;;;5.60;3.80;;;;;;;1.85;67.25;100907.40;112571;1249;22347;-41
2023/02/15 10:46:50;;;;;;;5.30;3.70;;;;;;;1.85;67.03;100907.25;112579;1249;22550;-41
2023/02/15 10:49:26;;;;;;;4.70;3.10;;;;;;;1.84;67.02;100905.11;112430;1249;23148;-40
2023/02/15 10:52:23;;;;;;;;;;;;;;;1.82;66.54;100907.79;112637;1249;22435;-40
2023/02/15 11:08:29;;;;;;;5.70;3.00;;;;;;;2.01;62.35;100898.83;112695;1249;22462;-50
2023/02/15 11:11:44;;;;;;;3.50;2.30;;;;;;;2.11;60.56;100901.17;112509;1249;23111;-40
2023/02/15 11:14:50;;;;;;;5.60;2.70;;;;;;;2.18;59.80;100899.54;112675;1249;23310;-43
2023/02/15 11:17:21;;;;;;;4.20;2.30;;;;;;;2.20;59.51;100904.30;112541;1249;22389;-40
2023/02/15 11:20:01;;;;;;;2.10;1.40;;;;;;;2.21;59.16;100906.07;112454;1249;22991;-48
2023/02/15 11:22:40;;;;;;;1.90;1.40;;;;;;;2.19;57.99;100910.95;112470;1249;23593;-50
2023/02/15 11:25:44;;;;;;;2.80;1.70;;;;;;;2.10;57.36;100906.77;112396;1249;22447;-49
2023/02/15 11:29:01;;;;;;;2.00;1.60;;;;;;;2.00;57.84;100908.75;112629;1249;23445;-49
2023/02/15 11:32:00;;;;;;;2.40;1.90;;;;;;;1.99;57.84;100904.59;112569;1249;22391;-48
2023/02/15 11:35:04;;;;;;;2.90;1.90;;;;;;;2.04;57.37;100906.67;112671;1249;22351;-49
2023/02/15 11:38:12;;;;;;;4.60;1.40;;;;;;;2.09;58.06;100907.25;112661;1249;22800;-48
2023/02/15 11:40:53;;;;;;;3.20;1.80;;;;;;;2.10;57.79;100907.48;112718;1249;23302;-48
2023/02/15 11:43:40;;;;;;;3.40;1.90;;;;;;;2.05;58.47;100910.00;112620;1249;22307;-51
2023/02/15 11:46:07;;;;;;;1.80;1.40;;;;;;;2.01;57.98;100918.42;112671;1249;22446;-48
2023/02/15 11:48:37;;;;;;;1.80;1.20;;;;;;;1.97;57.87;100915.85;112770;1249;22902;-49
2023/02/15 11:51:05;;;;;;;2.40;1.50;;;;;;;1.96;58.42;100913.02;112707;1249;23031;-40
2023/02/15 11:53:33;;;;;;;1.40;1.30;;;;;;;1.97;58.15;100910.67;111754;1249;22438;-49
2023/02/15 11:56:00;;;;;;;1.40;1.30;;;;;;;1.99;57.94;100909.41;112729;1249;22829;-49
2023/02/15 11:58:36;;;;;;;4.90;1.80;;;;;;;2.13;57.17;100911.91;112688;1249;22265;-41
2023/02/15 12:01:12;;;;;;;2.50;1.40;;;;;;;2.47;56.86;100906.84;112535;1249;22789;-49
2023/02/15 12:03:47;;;;;;;1.50;1.20;;;;;;;2.82;55.66;100900.87;112766;1249;22363;-49
2023/02/15 12:06:22;;;;;;;2.90;1.50;;;;;;;2.91;55.32;100903.64;112575;1249;22911;-40
2023/02/15 12:08:53;;;;;;;1.40;1.10;;;;;;;2.79;55.63;100900.42;112538;1249;23164;-41
2023/02/15 12:11:31;;;;;;;1.60;1.10;;;;;;;2.61;55.59;100905.36;112540;1249;22728;-49
2023/02/15 12:14:00;;;;;;;3.40;1.60;;;;;;;2.40;55.22;100904.29;112540;1249;23046;-41
2023/02/15 12:16:29;;;;;;;2.10;1.00;;;;;;;2.22;55.34;100906.80;112802;1249;22561;-50
2023/02/15 12:18:56;;;;;;;2.90;1.90;;;;;;;2.24;55.29;100904.83;112641;1249;22475;-50
2023/02/15 12:21:29;;;;;;;2.20;1.50;;;;;;;2.43;54.32;100908.17;112625;1249;22391;-49
2023/02/15 12:23:58;;;;;;;1.90;1.20;;;;;;;2.80;52.36;100903.72;112622;1249;22819;-49
2023/02/15 12:26:33;;;;;;;2.00;1.10;;;;;;;3.04;52.01;100902.96;112430;1249;22628;-40
2023/02/15 12:29:02;;;;;;;1.90;1.30;;;;;;;3.05;51.38;100902.67;110324;1249;24273;-49
2023/02/15 12:31:36;;;;;;;3.50;1.20;;;;;;;2.94;51.67;100900.14;111958;1249;23488;-50
2023/02/15 12:34:09;;;;;;;2.80;1.40;;;;;;;2.73;52.25;100895.70;112240;1249;22452;-49
2023/02/15 12:36:44;;;;;;;;;;;;;;;2.55;53.73;100903.38;112362;1249;22593;-40
2023/02/15 12:39:13;;;;;;;3.30;1.50;;;;;;;2.39;54.92;100907.36;110534;1249;23140;-50
2023/02/15 12:41:45;;;;;;;1.60;0.90;;;;;;;2.28;55.72;100911.17;112231;1249;22427;-49
2023/02/15 12:44:18;;;;;;;1.20;1.00;;;;;;;2.24;55.56;100910.84;112844;1249;23157;-41
2023/02/15 12:47:04;;;;;;;2.00;1.10;;;;;;;2.38;56.20;100908.88;110922;1249;22500;-41
2023/02/15 12:49:36;;;;;;;2.20;1.50;;;;;;;2.69;55.75;100903.94;111455;1249;22508;-49
2023/02/15 12:52:23;;;;;;;1.50;1.00;;;;;;;2.79;54.81;100905.59;111713;1249;22730;-40
2023/02/15 12:54:51;;;;;;;1.80;1.40;;;;;;;2.68;52.83;100911.86;112148;1249;22619;-41
2023/02/15 12:57:27;;;;;;;3.90;2.40;;;;;;;2.44;53.11;100917.21;110780;1249;24239;-39
2023/02/15 13:00:17;;;;;;;2.80;1.70;;;;;;;2.19;53.43;100922.15;112946;1249;22359;-40
2023/02/15 13:02:47;;;;;;;2.10;1.90;;;;;;;2.40;53.93;100920.81;112447;1255;22229;-50
2023/02/15 13:05:20;;;;;;;3.20;2.30;;;;;;;3.03;52.92;100915.18;111081;1244;22563;-50
2023/02/15 13:07:51;;;;;;;;;;;;;;;3.87;50.63;100916.85;110993;1254;22509;-40
2023/02/15 13:10:24;;;;;;;3.50;2.00;;;;;;;4.67;49.73;100911.01;112407;1254;22461;-49
2023/02/15 13:12:53;;;;;;;4.40;2.80;;;;;;;5.44;46.79;100908.65;112456;1255;22478;-50
